sensor_id;sensor_type;location;lat;lon;timestamp;P1;durP1;ratioP1;P2;durP2;ratioP2
19679;SDS011;9989;48.962;9.182;2023-01-29T00:01:39;18.63;;;12.43;;
19679;SDS011;9989;48.962;9.182;2023-01-29T00:04:05;21.23;;;11.63;;
19679;SDS011;9989;48.962;9.182;2023-01-29T00:06:31;15.03;;;9.43;;
19679;SDS011;9989;48.962;9.182;2023-01-29T00:08:57;14.80;;;8.37;;
19679;SDS011;9989;48.962;9.182;2023-01-29T00:11:22;12.47;;;7.77;;
19679;SDS011;9989;48.962;9.182;2023-01-29T00:13:49;12.73;;;6.87;;
19679;SDS011;9989;48.962;9.182;2023-01-29T00:16:15;12.93;;;6.97;;
19679;SDS011;9989;48.962;9.182;2023-01-29T00:18:41;17.57;;;9.47;;
19679;SDS011;9989;48.962;9.182;2023-01-29T00:21:13;13.90;;;7.83;;
19679;SDS011;9989;48.962;9.182;2023-01-29T00:23:41;11.57;;;6.87;;
19679;SDS011;9989;48.962;9.182;2023-01-29T00:26:07;12.80;;;7.30;;
19679;SDS011;9989;48.962;9.182;2023-01-29T00:28:33;26.93;;;12.57;;
19679;SDS011;9989;48.962;9.182;2023-01-29T00:31:06;17.03;;;8.80;;
19679;SDS011;9989;48.962;9.182;2023-01-29T00:33:35;14.53;;;8.70;;
19679;SDS011;9989;48.962;9.182;2023-01-29T00:36:05;12.70;;;6.87;;
19679;SDS011;9989;48.962;9.182;2023-01-29T00:38:32;12.07;;;6.47;;
19679;SDS011;9989;48.962;9.182;2023-01-29T00:41:09;20.57;;;11.17;;
19679;SDS011;9989;48.962;9.182;2023-01-29T00:43:57;17.67;;;10.10;;
19679;SDS011;9989;48.962;9.182;2023-01-29T00:46:41;15.33;;;7.50;;
19679;SDS011;9989;48.962;9.182;2023-01-29T00:49:07;10.93;;;6.67;;
19679;SDS011;9989;48.962;9.182;2023-01-29T00:51:33;12.67;;;6.67;;
19679;SDS011;9989;48.962;9.182;2023-01-29T00:54:00;11.47;;;6.77;;
19679;SDS011;9989;48.962;9.182;2023-01-29T00:56:31;13.90;;;7.37;;
19679;SDS011;9989;48.962;9.182;2023-01-29T00:58:58;12.30;;;7.00;;
19679;SDS011;9989;48.962;9.182;2023-01-29T01:01:23;12.17;;;6.87;;
19679;SDS011;9989;48.962;9.182;2023-01-29T01:04:09;12.93;;;7.40;;
19679;SDS011;9989;48.962;9.182;2023-01-29T01:06:36;12.83;;;7.63;;
19679;SDS011;9989;48.962;9.182;2023-01-29T01:09:02;14.00;;;7.10;;
19679;SDS011;9989;48.962;9.182;2023-01-29T01:11:47;14.37;;;8.13;;
19679;SDS011;9989;48.962;9.182;2023-01-29T01:14:12;13.87;;;7.77;;
19679;SDS011;9989;48.962;9.182;2023-01-29T01:16:38;13.70;;;7.83;;
19679;SDS011;9989;48.962;9.182;2023-01-29T01:19:04;16.37;;;7.50;;
19679;SDS011;9989;48.962;9.182;2023-01-29T01:21:29;15.30;;;7.57;;
19679;SDS011;9989;48.962;9.182;2023-01-29T01:23:56;14.00;;;7.57;;
19679;SDS011;9989;48.962;9.182;2023-01-29T01:26:21;12.13;;;6.60;;
19679;SDS011;9989;48.962;9.182;2023-01-29T01:28:47;13.57;;;7.67;;
19679;SDS011;9989;48.962;9.182;2023-01-29T01:31:12;14.97;;;7.50;;
19679;SDS011;9989;48.962;9.182;2023-01-29T01:33:39;15.07;;;7.47;;
19679;SDS011;9989;48.962;9.182;2023-01-29T01:36:05;12.17;;;6.93;;
19679;SDS011;9989;48.962;9.182;2023-01-29T01:38:37;12.90;;;7.57;;
19679;SDS011;9989;48.962;9.182;2023-01-29T01:41:16;13.53;;;7.17;;
19679;SDS011;9989;48.962;9.182;2023-01-29T01:43:48;14.13;;;7.50;;
19679;SDS011;9989;48.962;9.182;2023-01-29T01:46:14;12.37;;;7.17;;
19679;SDS011;9989;48.962;9.182;2023-01-29T01:48:41;11.30;;;6.87;;
19679;SDS011;9989;48.962;9.182;2023-01-29T01:51:07;14.00;;;7.20;;
19679;SDS011;9989;48.962;9.182;2023-01-29T01:53:44;12.77;;;7.40;;
19679;SDS011;9989;48.962;9.182;2023-01-29T01:56:20;13.30;;;7.47;;
19679;SDS011;9989;48.962;9.182;2023-01-29T01:58:53;12.40;;;6.90;;
19679;SDS011;9989;48.962;9.182;2023-01-29T02:01:21;13.30;;;6.90;;
19679;SDS011;9989;48.962;9.182;2023-01-29T02:03:54;12.40;;;6.97;;
19679;SDS011;9989;48.962;9.182;2023-01-29T02:06:48;12.57;;;7.30;;
19679;SDS011;9989;48.962;9.182;2023-01-29T02:09:36;13.43;;;7.53;;
19679;SDS011;9989;48.962;9.182;2023-01-29T02:12:15;13.87;;;7.67;;
19679;SDS011;9989;48.962;9.182;2023-01-29T02:14:41;14.33;;;8.17;;
19679;SDS011;9989;48.962;9.182;2023-01-29T02:17:11;15.07;;;8.00;;
19679;SDS011;9989;48.962;9.182;2023-01-29T02:33:25;13.30;;;7.37;;
19679;SDS011;9989;48.962;9.182;2023-01-29T02:38:49;13.87;;;7.00;;
19679;SDS011;9989;48.962;9.182;2023-01-29T02:44:40;14.73;;;7.47;;
19679;SDS011;9989;48.962;9.182;2023-01-29T02:47:20;13.90;;;7.53;;
19679;SDS011;9989;48.962;9.182;2023-01-29T02:49:58;14.03;;;7.20;;
19679;SDS011;9989;48.962;9.182;2023-01-29T02:52:42;14.37;;;8.17;;
19679;SDS011;9989;48.962;9.182;2023-01-29T02:55:23;15.80;;;7.87;;
19679;SDS011;9989;48.962;9.182;2023-01-29T02:57:55;15.67;;;7.47;;
19679;SDS011;9989;48.962;9.182;2023-01-29T03:00:27;12.63;;;6.93;;
19679;SDS011;9989;48.962;9.182;2023-01-29T03:02:59;12.63;;;6.97;;
19679;SDS011;9989;48.962;9.182;2023-01-29T03:08:19;16.73;;;8.23;;
19679;SDS011;9989;48.962;9.182;2023-01-29T03:11:01;15.40;;;7.50;;
19679;SDS011;9989;48.962;9.182;2023-01-29T03:13:34;14.00;;;7.20;;
19679;SDS011;9989;48.962;9.182;2023-01-29T03:16:10;14.40;;;7.80;;
19679;SDS011;9989;48.962;9.182;2023-01-29T03:18:39;12.60;;;6.87;;
19679;SDS011;9989;48.962;9.182;2023-01-29T03:21:14;14.00;;;7.23;;
19679;SDS011;9989;48.962;9.182;2023-01-29T03:24:02;12.83;;;7.10;;
19679;SDS011;9989;48.962;9.182;2023-01-29T03:26:48;16.40;;;8.33;;
19679;SDS011;9989;48.962;9.182;2023-01-29T03:29:32;15.20;;;7.57;;
19679;SDS011;9989;48.962;9.182;2023-01-29T03:32:19;14.53;;;8.20;;
19679;SDS011;9989;48.962;9.182;2023-01-29T03:34:49;12.67;;;7.40;;
19679;SDS011;9989;48.962;9.182;2023-01-29T03:37:25;13.53;;;7.13;;
19679;SDS011;9989;48.962;9.182;2023-01-29T03:39:56;14.33;;;7.70;;
19679;SDS011;9989;48.962;9.182;2023-01-29T03:42:23;12.50;;;7.60;;
19679;SDS011;9989;48.962;9.182;2023-01-29T03:45:05;15.33;;;7.57;;
19679;SDS011;9989;48.962;9.182;2023-01-29T03:53:19;14.40;;;7.90;;
19679;SDS011;9989;48.962;9.182;2023-01-29T03:58:29;13.40;;;7.57;;
19679;SDS011;9989;48.962;9.182;2023-01-29T04:01:35;13.23;;;7.40;;
19679;SDS011;9989;48.962;9.182;2023-01-29T04:06:31;15.03;;;6.43;;
19679;SDS011;9989;48.962;9.182;2023-01-29T04:11:29;15.37;;;8.37;;
19679;SDS011;9989;48.962;9.182;2023-01-29T04:13:57;13.33;;;7.23;;
19679;SDS011;9989;48.962;9.182;2023-01-29T04:16:25;14.13;;;7.70;;
19679;SDS011;9989;48.962;9.182;2023-01-29T04:18:55;12.93;;;7.30;;
19679;SDS011;9989;48.962;9.182;2023-01-29T04:21:21;13.83;;;7.37;;
19679;SDS011;9989;48.962;9.182;2023-01-29T04:23:47;15.00;;;7.67;;
19679;SDS011;9989;48.962;9.182;2023-01-29T04:29:13;14.10;;;7.23;;
19679;SDS011;9989;48.962;9.182;2023-01-29T04:34:26;14.53;;;8.07;;
19679;SDS011;9989;48.962;9.182;2023-01-29T04:39:44;11.47;;;6.67;;
19679;SDS011;9989;48.962;9.182;2023-01-29T04:42:36;14.40;;;7.10;;
19679;SDS011;9989;48.962;9.182;2023-01-29T04:50:45;12.60;;;7.03;;
19679;SDS011;9989;48.962;9.182;2023-01-29T04:53:25;14.07;;;6.80;;
19679;SDS011;9989;48.962;9.182;2023-01-29T04:59:04;12.93;;;7.37;;
19679;SDS011;9989;48.962;9.182;2023-01-29T05:01:34;15.33;;;7.57;;
19679;SDS011;9989;48.962;9.182;2023-01-29T05:04:02;13.27;;;7.27;;
19679;SDS011;9989;48.962;9.182;2023-01-29T05:06:32;14.70;;;7.80;;
19679;SDS011;9989;48.962;9.182;2023-01-29T05:08:59;16.60;;;7.40;;
19679;SDS011;9989;48.962;9.182;2023-01-29T05:11:26;13.97;;;8.30;;
19679;SDS011;9989;48.962;9.182;2023-01-29T05:13:55;15.13;;;7.53;;
19679;SDS011;9989;48.962;9.182;2023-01-29T05:16:25;12.33;;;7.20;;
19679;SDS011;9989;48.962;9.182;2023-01-29T05:18:53;12.37;;;7.13;;
19679;SDS011;9989;48.962;9.182;2023-01-29T05:21:19;13.20;;;7.10;;
19679;SDS011;9989;48.962;9.182;2023-01-29T05:24:04;15.13;;;7.53;;
19679;SDS011;9989;48.962;9.182;2023-01-29T05:26:33;11.80;;;6.83;;
19679;SDS011;9989;48.962;9.182;2023-01-29T05:29:17;12.90;;;7.13;;
19679;SDS011;9989;48.962;9.182;2023-01-29T05:31:43;13.03;;;7.33;;
19679;SDS011;9989;48.962;9.182;2023-01-29T05:34:09;14.83;;;7.90;;
19679;SDS011;9989;48.962;9.182;2023-01-29T05:36:35;15.77;;;7.50;;
19679;SDS011;9989;48.962;9.182;2023-01-29T05:39:00;13.67;;;7.20;;
19679;SDS011;9989;48.962;9.182;2023-01-29T05:41:26;12.40;;;6.60;;
19679;SDS011;9989;48.962;9.182;2023-01-29T05:43:51;16.57;;;8.30;;
19679;SDS011;9989;48.962;9.182;2023-01-29T05:46:17;14.37;;;8.03;;
19679;SDS011;9989;48.962;9.182;2023-01-29T05:48:43;14.00;;;7.60;;
19679;SDS011;9989;48.962;9.182;2023-01-29T05:51:08;15.37;;;8.00;;
19679;SDS011;9989;48.962;9.182;2023-01-29T05:53:34;14.17;;;7.40;;
19679;SDS011;9989;48.962;9.182;2023-01-29T05:56:00;14.67;;;7.47;;
19679;SDS011;9989;48.962;9.182;2023-01-29T05:58:28;14.70;;;7.03;;
19679;SDS011;9989;48.962;9.182;2023-01-29T06:00:55;16.17;;;8.00;;
19679;SDS011;9989;48.962;9.182;2023-01-29T06:03:20;15.10;;;7.93;;
19679;SDS011;9989;48.962;9.182;2023-01-29T06:05:46;13.77;;;7.33;;
19679;SDS011;9989;48.962;9.182;2023-01-29T06:08:11;14.97;;;7.87;;
19679;SDS011;9989;48.962;9.182;2023-01-29T06:10:37;14.07;;;7.27;;
19679;SDS011;9989;48.962;9.182;2023-01-29T06:13:02;13.77;;;7.43;;
19679;SDS011;9989;48.962;9.182;2023-01-29T06:15:28;15.20;;;9.00;;
19679;SDS011;9989;48.962;9.182;2023-01-29T06:17:54;16.03;;;7.97;;
19679;SDS011;9989;48.962;9.182;2023-01-29T06:20:21;13.47;;;7.80;;
19679;SDS011;9989;48.962;9.182;2023-01-29T06:22:46;13.23;;;7.07;;
19679;SDS011;9989;48.962;9.182;2023-01-29T06:25:12;16.53;;;7.77;;
19679;SDS011;9989;48.962;9.182;2023-01-29T06:27:38;15.60;;;8.03;;
19679;SDS011;9989;48.962;9.182;2023-01-29T06:30:04;13.87;;;7.27;;
19679;SDS011;9989;48.962;9.182;2023-01-29T06:32:30;14.17;;;8.30;;
19679;SDS011;9989;48.962;9.182;2023-01-29T06:34:56;13.87;;;8.07;;
19679;SDS011;9989;48.962;9.182;2023-01-29T06:37:21;12.77;;;7.27;;
19679;SDS011;9989;48.962;9.182;2023-01-29T06:39:47;14.10;;;8.23;;
19679;SDS011;9989;48.962;9.182;2023-01-29T06:42:12;17.07;;;8.33;;
19679;SDS011;9989;48.962;9.182;2023-01-29T06:44:38;12.93;;;7.30;;
19679;SDS011;9989;48.962;9.182;2023-01-29T06:47:04;16.33;;;8.03;;
19679;SDS011;9989;48.962;9.182;2023-01-29T06:49:29;13.77;;;7.90;;
19679;SDS011;9989;48.962;9.182;2023-01-29T06:51:55;14.43;;;7.77;;
19679;SDS011;9989;48.962;9.182;2023-01-29T06:54:21;13.50;;;7.67;;
19679;SDS011;9989;48.962;9.182;2023-01-29T06:56:46;14.03;;;7.60;;
19679;SDS011;9989;48.962;9.182;2023-01-29T06:59:12;14.27;;;7.73;;
19679;SDS011;9989;48.962;9.182;2023-01-29T07:01:38;13.93;;;8.13;;
19679;SDS011;9989;48.962;9.182;2023-01-29T07:04:08;15.00;;;7.93;;
19679;SDS011;9989;48.962;9.182;2023-01-29T07:06:37;15.83;;;8.30;;
19679;SDS011;9989;48.962;9.182;2023-01-29T07:09:02;14.37;;;7.67;;
19679;SDS011;9989;48.962;9.182;2023-01-29T07:11:28;15.97;;;8.20;;
19679;SDS011;9989;48.962;9.182;2023-01-29T07:13:54;16.87;;;8.77;;
19679;SDS011;9989;48.962;9.182;2023-01-29T07:16:20;15.33;;;7.93;;
19679;SDS011;9989;48.962;9.182;2023-01-29T07:18:45;14.33;;;7.10;;
19679;SDS011;9989;48.962;9.182;2023-01-29T07:21:11;13.90;;;7.90;;
19679;SDS011;9989;48.962;9.182;2023-01-29T07:23:36;13.67;;;8.17;;
19679;SDS011;9989;48.962;9.182;2023-01-29T07:26:02;13.70;;;8.07;;
19679;SDS011;9989;48.962;9.182;2023-01-29T07:28:29;16.13;;;8.07;;
19679;SDS011;9989;48.962;9.182;2023-01-29T07:30:58;16.10;;;8.10;;
19679;SDS011;9989;48.962;9.182;2023-01-29T07:33:23;16.37;;;8.20;;
19679;SDS011;9989;48.962;9.182;2023-01-29T07:35:50;13.77;;;7.60;;
19679;SDS011;9989;48.962;9.182;2023-01-29T07:38:16;15.40;;;8.73;;
19679;SDS011;9989;48.962;9.182;2023-01-29T07:40:42;14.90;;;7.97;;
19679;SDS011;9989;48.962;9.182;2023-01-29T07:43:08;14.87;;;8.50;;
19679;SDS011;9989;48.962;9.182;2023-01-29T07:45:35;13.80;;;7.70;;
19679;SDS011;9989;48.962;9.182;2023-01-29T07:48:01;15.43;;;8.53;;
19679;SDS011;9989;48.962;9.182;2023-01-29T07:50:29;15.73;;;8.83;;
19679;SDS011;9989;48.962;9.182;2023-01-29T07:52:55;22.40;;;10.70;;
19679;SDS011;9989;48.962;9.182;2023-01-29T07:55:21;16.23;;;9.30;;
19679;SDS011;9989;48.962;9.182;2023-01-29T07:57:53;15.27;;;9.50;;
19679;SDS011;9989;48.962;9.182;2023-01-29T08:00:22;16.73;;;9.23;;
19679;SDS011;9989;48.962;9.182;2023-01-29T08:02:48;16.60;;;8.77;;
19679;SDS011;9989;48.962;9.182;2023-01-29T08:05:14;15.13;;;8.13;;
19679;SDS011;9989;48.962;9.182;2023-01-29T08:07:40;17.03;;;9.13;;
19679;SDS011;9989;48.962;9.182;2023-01-29T08:10:05;15.47;;;8.93;;
19679;SDS011;9989;48.962;9.182;2023-01-29T08:12:31;26.73;;;14.13;;
19679;SDS011;9989;48.962;9.182;2023-01-29T08:14:56;43.70;;;22.10;;
19679;SDS011;9989;48.962;9.182;2023-01-29T08:17:22;26.73;;;15.83;;
19679;SDS011;9989;48.962;9.182;2023-01-29T08:19:48;18.80;;;10.80;;
19679;SDS011;9989;48.962;9.182;2023-01-29T08:22:13;15.83;;;9.47;;
19679;SDS011;9989;48.962;9.182;2023-01-29T08:24:40;19.80;;;9.70;;
19679;SDS011;9989;48.962;9.182;2023-01-29T08:27:06;15.87;;;9.07;;
19679;SDS011;9989;48.962;9.182;2023-01-29T08:29:32;15.70;;;9.10;;
19679;SDS011;9989;48.962;9.182;2023-01-29T08:31:57;16.30;;;9.90;;
19679;SDS011;9989;48.962;9.182;2023-01-29T08:34:23;17.73;;;9.93;;
19679;SDS011;9989;48.962;9.182;2023-01-29T08:36:49;16.97;;;9.73;;
19679;SDS011;9989;48.962;9.182;2023-01-29T08:39:14;15.60;;;8.87;;
19679;SDS011;9989;48.962;9.182;2023-01-29T08:41:40;16.70;;;9.50;;
19679;SDS011;9989;48.962;9.182;2023-01-29T08:44:05;16.67;;;9.23;;
19679;SDS011;9989;48.962;9.182;2023-01-29T08:46:31;16.97;;;10.07;;
19679;SDS011;9989;48.962;9.182;2023-01-29T08:48:57;16.30;;;8.60;;
19679;SDS011;9989;48.962;9.182;2023-01-29T08:51:23;15.40;;;8.57;;
19679;SDS011;9989;48.962;9.182;2023-01-29T08:53:50;17.07;;;8.73;;
19679;SDS011;9989;48.962;9.182;2023-01-29T08:56:16;15.80;;;8.77;;
19679;SDS011;9989;48.962;9.182;2023-01-29T08:58:41;16.80;;;9.17;;
19679;SDS011;9989;48.962;9.182;2023-01-29T09:01:08;13.47;;;8.03;;
19679;SDS011;9989;48.962;9.182;2023-01-29T09:03:35;15.87;;;8.67;;
19679;SDS011;9989;48.962;9.182;2023-01-29T09:06:01;13.97;;;7.93;;
19679;SDS011;9989;48.962;9.182;2023-01-29T09:08:27;14.20;;;8.10;;
19679;SDS011;9989;48.962;9.182;2023-01-29T09:10:53;16.37;;;9.23;;
19679;SDS011;9989;48.962;9.182;2023-01-29T09:13:18;16.70;;;9.47;;
19679;SDS011;9989;48.962;9.182;2023-01-29T09:15:44;14.67;;;8.73;;
19679;SDS011;9989;48.962;9.182;2023-01-29T09:18:10;18.33;;;8.43;;
19679;SDS011;9989;48.962;9.182;2023-01-29T09:20:35;17.60;;;8.93;;
19679;SDS011;9989;48.962;9.182;2023-01-29T09:23:03;17.63;;;8.37;;
19679;SDS011;9989;48.962;9.182;2023-01-29T09:25:29;16.37;;;8.57;;
19679;SDS011;9989;48.962;9.182;2023-01-29T09:27:55;18.63;;;8.90;;
19679;SDS011;9989;48.962;9.182;2023-01-29T09:30:21;16.30;;;8.23;;
19679;SDS011;9989;48.962;9.182;2023-01-29T09:32:46;15.53;;;8.77;;
19679;SDS011;9989;48.962;9.182;2023-01-29T09:35:12;16.57;;;8.77;;
19679;SDS011;9989;48.962;9.182;2023-01-29T09:37:37;13.23;;;7.77;;
19679;SDS011;9989;48.962;9.182;2023-01-29T09:40:03;15.07;;;8.87;;
19679;SDS011;9989;48.962;9.182;2023-01-29T09:47:38;14.50;;;8.73;;
19679;SDS011;9989;48.962;9.182;2023-01-29T09:52:40;13.70;;;7.70;;
19679;SDS011;9989;48.962;9.182;2023-01-29T09:55:15;16.13;;;9.90;;
19679;SDS011;9989;48.962;9.182;2023-01-29T09:58:18;15.50;;;9.83;;
19679;SDS011;9989;48.962;9.182;2023-01-29T10:01:31;17.07;;;9.63;;
19679;SDS011;9989;48.962;9.182;2023-01-29T10:14:30;12.97;;;7.33;;
19679;SDS011;9989;48.962;9.182;2023-01-29T10:25:31;12.23;;;7.00;;
19679;SDS011;9989;48.962;9.182;2023-01-29T10:28:04;12.30;;;7.50;;
19679;SDS011;9989;48.962;9.182;2023-01-29T10:30:41;15.57;;;8.53;;
19679;SDS011;9989;48.962;9.182;2023-01-29T10:33:16;15.00;;;8.17;;
19679;SDS011;9989;48.962;9.182;2023-01-29T10:35:47;13.77;;;7.50;;
19679;SDS011;9989;48.962;9.182;2023-01-29T10:38:23;15.27;;;9.70;;
19679;SDS011;9989;48.962;9.182;2023-01-29T10:49:28;11.27;;;6.43;;
19679;SDS011;9989;48.962;9.182;2023-01-29T10:55:04;13.80;;;7.10;;
19679;SDS011;9989;48.962;9.182;2023-01-29T11:00:34;13.07;;;7.83;;
19679;SDS011;9989;48.962;9.182;2023-01-29T11:03:10;15.73;;;8.53;;
19679;SDS011;9989;48.962;9.182;2023-01-29T11:05:42;15.83;;;9.73;;
19679;SDS011;9989;48.962;9.182;2023-01-29T11:08:33;15.33;;;8.60;;
19679;SDS011;9989;48.962;9.182;2023-01-29T11:11:06;16.33;;;9.10;;
19679;SDS011;9989;48.962;9.182;2023-01-29T11:13:35;15.33;;;8.43;;
19679;SDS011;9989;48.962;9.182;2023-01-29T11:16:05;14.17;;;8.50;;
19679;SDS011;9989;48.962;9.182;2023-01-29T11:21:24;19.70;;;10.57;;
19679;SDS011;9989;48.962;9.182;2023-01-29T11:24:24;16.80;;;9.33;;
19679;SDS011;9989;48.962;9.182;2023-01-29T11:26:44;15.73;;;9.47;;
19679;SDS011;9989;48.962;9.182;2023-01-29T11:29:32;17.33;;;9.87;;
19679;SDS011;9989;48.962;9.182;2023-01-29T11:31:59;17.87;;;10.30;;
19679;SDS011;9989;48.962;9.182;2023-01-29T11:34:27;18.03;;;10.00;;
19679;SDS011;9989;48.962;9.182;2023-01-29T11:36:57;19.27;;;10.20;;
19679;SDS011;9989;48.962;9.182;2023-01-29T11:39:23;16.50;;;9.70;;
19679;SDS011;9989;48.962;9.182;2023-01-29T11:46:54;17.30;;;9.00;;
19679;SDS011;9989;48.962;9.182;2023-01-29T11:49:30;16.30;;;9.17;;
19679;SDS011;9989;48.962;9.182;2023-01-29T11:51:58;17.30;;;9.27;;
19679;SDS011;9989;48.962;9.182;2023-01-29T11:54:28;16.90;;;9.07;;
19679;SDS011;9989;48.962;9.182;2023-01-29T11:56:58;15.67;;;8.90;;
19679;SDS011;9989;48.962;9.182;2023-01-29T12:04:47;16.93;;;9.80;;
19679;SDS011;9989;48.962;9.182;2023-01-29T12:07:14;15.27;;;9.03;;
19679;SDS011;9989;48.962;9.182;2023-01-29T12:09:46;12.63;;;7.47;;
19679;SDS011;9989;48.962;9.182;2023-01-29T12:12:25;13.17;;;7.40;;
19679;SDS011;9989;48.962;9.182;2023-01-29T12:17:41;11.67;;;6.73;;
19679;SDS011;9989;48.962;9.182;2023-01-29T12:20:16;12.00;;;6.97;;
19679;SDS011;9989;48.962;9.182;2023-01-29T12:23:10;11.07;;;6.33;;
19679;SDS011;9989;48.962;9.182;2023-01-29T12:28:33;13.30;;;8.60;;
19679;SDS011;9989;48.962;9.182;2023-01-29T12:31:20;11.03;;;7.47;;
19679;SDS011;9989;48.962;9.182;2023-01-29T12:39:11;11.43;;;7.73;;
19679;SDS011;9989;48.962;9.182;2023-01-29T12:41:42;14.37;;;8.27;;
19679;SDS011;9989;48.962;9.182;2023-01-29T12:46:53;15.10;;;9.70;;
19679;SDS011;9989;48.962;9.182;2023-01-29T12:49:23;13.53;;;9.00;;
19679;SDS011;9989;48.962;9.182;2023-01-29T12:54:41;13.97;;;9.03;;
19679;SDS011;9989;48.962;9.182;2023-01-29T12:57:23;15.33;;;9.50;;
19679;SDS011;9989;48.962;9.182;2023-01-29T13:00:02;14.43;;;9.30;;
19679;SDS011;9989;48.962;9.182;2023-01-29T13:02:35;13.87;;;9.20;;
19679;SDS011;9989;48.962;9.182;2023-01-29T13:07:44;15.93;;;9.87;;
19679;SDS011;9989;48.962;9.182;2023-01-29T13:10:14;16.27;;;10.47;;
19679;SDS011;9989;48.962;9.182;2023-01-29T13:13:04;13.73;;;8.33;;
19679;SDS011;9989;48.962;9.182;2023-01-29T13:15:47;13.97;;;7.73;;
19679;SDS011;9989;48.962;9.182;2023-01-29T13:20:57;14.63;;;8.57;;
19679;SDS011;9989;48.962;9.182;2023-01-29T13:23:29;14.37;;;9.00;;
19679;SDS011;9989;48.962;9.182;2023-01-29T13:26:01;14.37;;;8.40;;
19679;SDS011;9989;48.962;9.182;2023-01-29T13:28:27;13.50;;;8.27;;
19679;SDS011;9989;48.962;9.182;2023-01-29T13:31:15;15.10;;;9.43;;
19679;SDS011;9989;48.962;9.182;2023-01-29T13:34:06;13.83;;;8.70;;
19679;SDS011;9989;48.962;9.182;2023-01-29T13:36:40;14.43;;;8.47;;
19679;SDS011;9989;48.962;9.182;2023-01-29T13:39:54;13.63;;;8.23;;
19679;SDS011;9989;48.962;9.182;2023-01-29T13:45:06;13.07;;;7.93;;
19679;SDS011;9989;48.962;9.182;2023-01-29T13:47:34;14.33;;;9.13;;
19679;SDS011;9989;48.962;9.182;2023-01-29T13:50:09;15.63;;;9.13;;
19679;SDS011;9989;48.962;9.182;2023-01-29T13:52:57;13.33;;;8.40;;
19679;SDS011;9989;48.962;9.182;2023-01-29T13:55:30;14.30;;;9.33;;
19679;SDS011;9989;48.962;9.182;2023-01-29T13:58:02;14.30;;;8.80;;
19679;SDS011;9989;48.962;9.182;2023-01-29T14:10:34;14.20;;;8.90;;
19679;SDS011;9989;48.962;9.182;2023-01-29T14:15:27;13.67;;;8.27;;
19679;SDS011;9989;48.962;9.182;2023-01-29T14:20:26;13.63;;;8.30;;
19679;SDS011;9989;48.962;9.182;2023-01-29T14:22:56;12.37;;;7.63;;
19679;SDS011;9989;48.962;9.182;2023-01-29T14:25:28;12.97;;;7.77;;
19679;SDS011;9989;48.962;9.182;2023-01-29T14:27:57;14.17;;;7.87;;
19679;SDS011;9989;48.962;9.182;2023-01-29T14:30:25;13.97;;;8.30;;
19679;SDS011;9989;48.962;9.182;2023-01-29T14:32:54;15.10;;;9.40;;
19679;SDS011;9989;48.962;9.182;2023-01-29T14:35:27;15.80;;;9.07;;
19679;SDS011;9989;48.962;9.182;2023-01-29T14:37:57;14.03;;;8.27;;
19679;SDS011;9989;48.962;9.182;2023-01-29T14:40:27;16.93;;;8.67;;
19679;SDS011;9989;48.962;9.182;2023-01-29T14:43:28;13.40;;;8.20;;
19679;SDS011;9989;48.962;9.182;2023-01-29T14:45:47;14.67;;;9.03;;
19679;SDS011;9989;48.962;9.182;2023-01-29T14:51:07;14.73;;;9.07;;
19679;SDS011;9989;48.962;9.182;2023-01-29T14:53:52;13.27;;;8.20;;
19679;SDS011;9989;48.962;9.182;2023-01-29T14:59:32;14.27;;;9.37;;
19679;SDS011;9989;48.962;9.182;2023-01-29T15:02:11;15.97;;;10.07;;
19679;SDS011;9989;48.962;9.182;2023-01-29T15:04:48;13.37;;;8.23;;
19679;SDS011;9989;48.962;9.182;2023-01-29T15:12:29;13.33;;;7.43;;
19679;SDS011;9989;48.962;9.182;2023-01-29T15:17:32;10.77;;;6.67;;
19679;SDS011;9989;48.962;9.182;2023-01-29T15:20:35;9.60;;;5.83;;
19679;SDS011;9989;48.962;9.182;2023-01-29T15:23:00;11.43;;;6.90;;
19679;SDS011;9989;48.962;9.182;2023-01-29T15:25:29;11.17;;;7.03;;
19679;SDS011;9989;48.962;9.182;2023-01-29T15:27:59;11.67;;;7.40;;
19679;SDS011;9989;48.962;9.182;2023-01-29T15:30:32;12.93;;;8.50;;
19679;SDS011;9989;48.962;9.182;2023-01-29T15:32:59;11.67;;;6.87;;
19679;SDS011;9989;48.962;9.182;2023-01-29T15:35:36;13.27;;;7.63;;
19679;SDS011;9989;48.962;9.182;2023-01-29T15:38:04;11.87;;;7.20;;
19679;SDS011;9989;48.962;9.182;2023-01-29T15:40:30;12.80;;;7.73;;
19679;SDS011;9989;48.962;9.182;2023-01-29T15:42:57;10.60;;;6.50;;
19679;SDS011;9989;48.962;9.182;2023-01-29T15:45:27;11.43;;;6.73;;
19679;SDS011;9989;48.962;9.182;2023-01-29T15:48:02;13.17;;;7.60;;
19679;SDS011;9989;48.962;9.182;2023-01-29T15:50:38;11.83;;;7.07;;
19679;SDS011;9989;48.962;9.182;2023-01-29T15:53:06;10.53;;;6.20;;
19679;SDS011;9989;48.962;9.182;2023-01-29T15:55:38;11.47;;;6.40;;
19679;SDS011;9989;48.962;9.182;2023-01-29T15:58:04;14.10;;;7.47;;
19679;SDS011;9989;48.962;9.182;2023-01-29T16:00:31;10.70;;;6.50;;
19679;SDS011;9989;48.962;9.182;2023-01-29T16:02:57;12.20;;;6.20;;
19679;SDS011;9989;48.962;9.182;2023-01-29T16:05:28;11.40;;;6.70;;
19679;SDS011;9989;48.962;9.182;2023-01-29T16:07:57;13.00;;;6.90;;
19679;SDS011;9989;48.962;9.182;2023-01-29T16:10:28;11.53;;;6.70;;
19679;SDS011;9989;48.962;9.182;2023-01-29T16:12:55;11.60;;;6.30;;
19679;SDS011;9989;48.962;9.182;2023-01-29T16:15:32;12.73;;;6.87;;
19679;SDS011;9989;48.962;9.182;2023-01-29T16:18:03;11.43;;;6.30;;
19679;SDS011;9989;48.962;9.182;2023-01-29T16:20:53;13.57;;;7.83;;
19679;SDS011;9989;48.962;9.182;2023-01-29T16:23:22;16.33;;;8.70;;
19679;SDS011;9989;48.962;9.182;2023-01-29T16:25:54;17.80;;;9.63;;
19679;SDS011;9989;48.962;9.182;2023-01-29T16:28:25;18.67;;;9.70;;
19679;SDS011;9989;48.962;9.182;2023-01-29T16:30:55;19.50;;;10.77;;
19679;SDS011;9989;48.962;9.182;2023-01-29T16:33:22;20.10;;;11.73;;
19679;SDS011;9989;48.962;9.182;2023-01-29T16:36:02;16.37;;;9.63;;
19679;SDS011;9989;48.962;9.182;2023-01-29T16:38:35;18.03;;;10.20;;
19679;SDS011;9989;48.962;9.182;2023-01-29T16:41:07;19.00;;;11.27;;
19679;SDS011;9989;48.962;9.182;2023-01-29T16:43:43;19.07;;;11.87;;
19679;SDS011;9989;48.962;9.182;2023-01-29T16:46:18;20.63;;;12.40;;
19679;SDS011;9989;48.962;9.182;2023-01-29T16:48:44;18.33;;;11.70;;
19679;SDS011;9989;48.962;9.182;2023-01-29T16:51:22;20.20;;;12.40;;
19679;SDS011;9989;48.962;9.182;2023-01-29T16:54:12;21.20;;;13.20;;
19679;SDS011;9989;48.962;9.182;2023-01-29T16:56:46;20.40;;;11.90;;
19679;SDS011;9989;48.962;9.182;2023-01-29T16:59:18;26.73;;;13.37;;
19679;SDS011;9989;48.962;9.182;2023-01-29T17:01:53;20.37;;;12.30;;
19679;SDS011;9989;48.962;9.182;2023-01-29T17:04:19;19.23;;;12.07;;
19679;SDS011;9989;48.962;9.182;2023-01-29T17:06:47;18.07;;;9.87;;
19679;SDS011;9989;48.962;9.182;2023-01-29T17:09:28;17.93;;;10.50;;
19679;SDS011;9989;48.962;9.182;2023-01-29T17:12:00;18.13;;;10.47;;
19679;SDS011;9989;48.962;9.182;2023-01-29T17:14:30;19.50;;;11.17;;
19679;SDS011;9989;48.962;9.182;2023-01-29T17:19:26;33.43;;;19.03;;
19679;SDS011;9989;48.962;9.182;2023-01-29T17:21:54;26.53;;;15.97;;
19679;SDS011;9989;48.962;9.182;2023-01-29T17:24:20;30.47;;;16.87;;
19679;SDS011;9989;48.962;9.182;2023-01-29T17:26:46;25.73;;;15.33;;
19679;SDS011;9989;48.962;9.182;2023-01-29T17:29:13;28.70;;;16.47;;
19679;SDS011;9989;48.962;9.182;2023-01-29T17:31:42;27.17;;;16.37;;
19679;SDS011;9989;48.962;9.182;2023-01-29T17:34:11;23.27;;;13.83;;
19679;SDS011;9989;48.962;9.182;2023-01-29T17:36:39;23.27;;;12.37;;
19679;SDS011;9989;48.962;9.182;2023-01-29T17:39:38;23.23;;;13.27;;
19679;SDS011;9989;48.962;9.182;2023-01-29T17:41:57;23.13;;;12.73;;
19679;SDS011;9989;48.962;9.182;2023-01-29T17:44:23;21.93;;;12.13;;
19679;SDS011;9989;48.962;9.182;2023-01-29T17:46:52;19.33;;;10.93;;
19679;SDS011;9989;48.962;9.182;2023-01-29T17:51:48;18.37;;;10.23;;
19679;SDS011;9989;48.962;9.182;2023-01-29T17:54:14;19.20;;;10.00;;